sensor_id;sensor_type;location;lat;lon;timestamp;pressure;altitude;pressure_sealevel;temperature;humidity
43711;BME280;29309;42.682;23.372;2023-04-28T00:00:48;95416.59;;;7.64;49.59
43711;BME280;29309;42.682;23.372;2023-04-28T00:03:14;95422.34;;;7.57;48.91
43711;BME280;29309;42.682;23.372;2023-04-28T00:05:39;95418.72;;;7.54;49.56
43711;BME280;29309;42.682;23.372;2023-04-28T00:08:05;95426.44;;;7.56;48.69
43711;BME280;29309;42.682;23.372;2023-04-28T00:10:31;95436.75;;;7.55;48.84
43711;BME280;29309;42.682;23.372;2023-04-28T00:12:57;95426.16;;;7.52;48.55
43711;BME280;29309;42.682;23.372;2023-04-28T00:15:22;95425.06;;;7.45;48.80
43711;BME280;29309;42.682;23.372;2023-04-28T00:17:48;95421.75;;;7.37;48.89
43711;BME280;29309;42.682;23.372;2023-04-28T00:20:14;95420.88;;;7.34;49.75
43711;BME280;29309;42.682;23.372;2023-04-28T00:22:40;95425.56;;;7.32;49.04
43711;BME280;29309;42.682;23.372;2023-04-28T00:25:06;95424.00;;;7.29;49.49
43711;BME280;29309;42.682;23.372;2023-04-28T00:27:32;95422.28;;;7.24;50.44
43711;BME280;29309;42.682;23.372;2023-04-28T00:29:58;95424.63;;;7.18;50.18
43711;BME280;29309;42.682;23.372;2023-04-28T00:32:23;95435.22;;;7.21;49.81
43711;BME280;29309;42.682;23.372;2023-04-28T00:34:49;95425.69;;;7.13;50.35
43711;BME280;29309;42.682;23.372;2023-04-28T00:37:14;95428.31;;;7.11;50.12
43711;BME280;29309;42.682;23.372;2023-04-28T00:39:40;95432.56;;;7.02;49.80
43711;BME280;29309;42.682;23.372;2023-04-28T00:42:06;95438.09;;;7.02;50.65
43711;BME280;29309;42.682;23.372;2023-04-28T00:44:31;95444.66;;;6.97;50.66
43711;BME280;29309;42.682;23.372;2023-04-28T00:46:58;95435.97;;;6.91;50.77
43711;BME280;29309;42.682;23.372;2023-04-28T00:49:24;95425.97;;;6.86;51.04
43711;BME280;29309;42.682;23.372;2023-04-28T00:51:50;95424.25;;;6.81;51.04
43711;BME280;29309;42.682;23.372;2023-04-28T00:54:15;95442.00;;;6.78;51.50
43711;BME280;29309;42.682;23.372;2023-04-28T00:56:42;95423.44;;;6.69;51.71
43711;BME280;29309;42.682;23.372;2023-04-28T00:59:08;95435.78;;;6.68;51.76
43711;BME280;29309;42.682;23.372;2023-04-28T01:01:34;95446.94;;;6.70;51.57
43711;BME280;29309;42.682;23.372;2023-04-28T01:04:00;95439.31;;;6.59;51.99
43711;BME280;29309;42.682;23.372;2023-04-28T01:06:26;95443.38;;;6.58;51.84
43711;BME280;29309;42.682;23.372;2023-04-28T01:08:53;95446.31;;;6.50;52.15
43711;BME280;29309;42.682;23.372;2023-04-28T01:11:18;95453.09;;;6.59;51.95
43711;BME280;29309;42.682;23.372;2023-04-28T01:13:44;95437.59;;;6.54;51.88
43711;BME280;29309;42.682;23.372;2023-04-28T01:16:10;95435.72;;;6.47;52.05
43711;BME280;29309;42.682;23.372;2023-04-28T01:18:35;95447.63;;;6.49;52.25
43711;BME280;29309;42.682;23.372;2023-04-28T01:21:01;95450.09;;;6.45;52.88
43711;BME280;29309;42.682;23.372;2023-04-28T01:23:28;95459.38;;;6.50;52.68
43711;BME280;29309;42.682;23.372;2023-04-28T01:25:54;95449.38;;;6.44;52.95
43711;BME280;29309;42.682;23.372;2023-04-28T01:28:20;95451.44;;;6.34;52.43
43711;BME280;29309;42.682;23.372;2023-04-28T01:30:46;95455.94;;;6.30;53.29
43711;BME280;29309;42.682;23.372;2023-04-28T01:33:11;95460.00;;;6.29;53.06
43711;BME280;29309;42.682;23.372;2023-04-28T01:35:36;95452.19;;;6.25;53.21
43711;BME280;29309;42.682;23.372;2023-04-28T01:38:02;95456.81;;;6.23;52.76
43711;BME280;29309;42.682;23.372;2023-04-28T01:40:27;95457.69;;;6.25;53.23
43711;BME280;29309;42.682;23.372;2023-04-28T01:42:53;95446.09;;;6.17;52.67
43711;BME280;29309;42.682;23.372;2023-04-28T01:45:18;95453.94;;;6.21;52.65
43711;BME280;29309;42.682;23.372;2023-04-28T01:47:44;95450.03;;;6.14;53.54
43711;BME280;29309;42.682;23.372;2023-04-28T01:50:09;95451.47;;;6.15;53.12
43711;BME280;29309;42.682;23.372;2023-04-28T01:52:35;95448.16;;;6.07;53.11
43711;BME280;29309;42.682;23.372;2023-04-28T01:55:01;95445.97;;;6.06;53.01
43711;BME280;29309;42.682;23.372;2023-04-28T01:57:26;95457.84;;;6.08;53.21
43711;BME280;29309;42.682;23.372;2023-04-28T01:59:53;95453.38;;;6.03;53.44
43711;BME280;29309;42.682;23.372;2023-04-28T02:02:19;95449.28;;;6.04;53.27
43711;BME280;29309;42.682;23.372;2023-04-28T02:04:44;95456.13;;;6.03;53.09
43711;BME280;29309;42.682;23.372;2023-04-28T02:07:10;95459.03;;;6.05;53.21
43711;BME280;29309;42.682;23.372;2023-04-28T02:09:35;95446.00;;;5.96;53.67
43711;BME280;29309;42.682;23.372;2023-04-28T02:12:01;95459.34;;;6.00;53.46
43711;BME280;29309;42.682;23.372;2023-04-28T02:14:27;95454.69;;;5.92;53.36
43711;BME280;29309;42.682;23.372;2023-04-28T02:16:53;95462.25;;;5.92;53.61
43711;BME280;29309;42.682;23.372;2023-04-28T02:19:18;95462.97;;;5.92;53.38
43711;BME280;29309;42.682;23.372;2023-04-28T02:21:44;95458.31;;;5.85;53.76
43711;BME280;29309;42.682;23.372;2023-04-28T02:24:09;95464.09;;;5.80;53.57
43711;BME280;29309;42.682;23.372;2023-04-28T02:26:35;95466.41;;;5.83;53.61
43711;BME280;29309;42.682;23.372;2023-04-28T02:29:00;95472.34;;;5.80;53.54
43711;BME280;29309;42.682;23.372;2023-04-28T02:31:28;95476.41;;;5.79;53.76
43711;BME280;29309;42.682;23.372;2023-04-28T02:33:54;95470.47;;;5.73;53.97
43711;BME280;29309;42.682;23.372;2023-04-28T02:36:20;95470.47;;;5.73;54.33
43711;BME280;29309;42.682;23.372;2023-04-28T02:38:46;95478.31;;;5.67;54.06
43711;BME280;29309;42.682;23.372;2023-04-28T02:41:11;95479.91;;;5.70;54.40
43711;BME280;29309;42.682;23.372;2023-04-28T02:43:38;95484.69;;;5.69;54.41
43711;BME280;29309;42.682;23.372;2023-04-28T02:46:04;95479.47;;;5.64;54.40
43711;BME280;29309;42.682;23.372;2023-04-28T02:48:29;95488.47;;;5.64;54.22
43711;BME280;29309;42.682;23.372;2023-04-28T02:50:55;95484.25;;;5.63;54.37
43711;BME280;29309;42.682;23.372;2023-04-28T02:53:21;95489.16;;;5.65;54.90
43711;BME280;29309;42.682;23.372;2023-04-28T02:55:47;95490.78;;;5.68;54.79
43711;BME280;29309;42.682;23.372;2023-04-28T02:58:13;95487.88;;;5.56;55.15
43711;BME280;29309;42.682;23.372;2023-04-28T03:00:38;95494.66;;;5.65;54.45
43711;BME280;29309;42.682;23.372;2023-04-28T03:03:04;95495.53;;;5.58;54.39
43711;BME280;29309;42.682;23.372;2023-04-28T03:05:29;95492.06;;;5.57;54.84
43711;BME280;29309;42.682;23.372;2023-04-28T03:07:55;95503.78;;;5.58;55.61
43711;BME280;29309;42.682;23.372;2023-04-28T03:10:20;95496.09;;;5.46;55.06
43711;BME280;29309;42.682;23.372;2023-04-28T03:12:46;95505.13;;;5.57;54.76
43711;BME280;29309;42.682;23.372;2023-04-28T03:15:11;95495.22;;;5.44;55.03
43711;BME280;29309;42.682;23.372;2023-04-28T03:17:37;95489.00;;;5.43;55.13
43711;BME280;29309;42.682;23.372;2023-04-28T03:20:06;95495.66;;;5.50;55.29
43711;BME280;29309;42.682;23.372;2023-04-28T03:22:32;95506.41;;;5.56;55.27
43711;BME280;29309;42.682;23.372;2023-04-28T03:24:57;95521.34;;;5.53;55.63
43711;BME280;29309;42.682;23.372;2023-04-28T03:27:23;95519.75;;;5.50;55.68
43711;BME280;29309;42.682;23.372;2023-04-28T03:29:48;95520.59;;;5.52;55.95
43711;BME280;29309;42.682;23.372;2023-04-28T03:32:14;95518.28;;;5.58;55.99
43711;BME280;29309;42.682;23.372;2023-04-28T03:34:39;95522.78;;;5.54;55.17
43711;BME280;29309;42.682;23.372;2023-04-28T03:37:05;95517.56;;;5.48;55.53
43711;BME280;29309;42.682;23.372;2023-04-28T03:39:32;95530.91;;;5.52;55.33
43711;BME280;29309;42.682;23.372;2023-04-28T03:41:58;95529.31;;;5.58;55.17
43711;BME280;29309;42.682;23.372;2023-04-28T03:44:23;95537.88;;;5.72;54.84
43711;BME280;29309;42.682;23.372;2023-04-28T03:46:49;95542.94;;;5.75;54.71
43711;BME280;29309;42.682;23.372;2023-04-28T03:49:15;95550.41;;;5.92;54.09
43711;BME280;29309;42.682;23.372;2023-04-28T03:51:40;95543.31;;;5.99;54.12
43711;BME280;29309;42.682;23.372;2023-04-28T03:54:06;95539.41;;;6.11;53.75
43711;BME280;29309;42.682;23.372;2023-04-28T03:56:32;95554.44;;;6.29;53.82
43711;BME280;29309;42.682;23.372;2023-04-28T03:58:57;95557.50;;;6.43;53.29
43711;BME280;29309;42.682;23.372;2023-04-28T04:01:23;95556.75;;;6.62;52.67
43711;BME280;29309;42.682;23.372;2023-04-28T04:03:48;95568.91;;;6.78;52.36
43711;BME280;29309;42.682;23.372;2023-04-28T04:06:14;95566.56;;;6.93;50.80
43711;BME280;29309;42.682;23.372;2023-04-28T04:08:39;95573.78;;;7.08;50.99
43711;BME280;29309;42.682;23.372;2023-04-28T04:11:05;95576.66;;;7.10;50.71
43711;BME280;29309;42.682;23.372;2023-04-28T04:13:30;95575.47;;;7.13;51.07
43711;BME280;29309;42.682;23.372;2023-04-28T04:15:56;95580.28;;;7.13;50.16
43711;BME280;29309;42.682;23.372;2023-04-28T04:18:22;95578.25;;;7.13;50.89
43711;BME280;29309;42.682;23.372;2023-04-28T04:20:47;95581.88;;;7.16;49.45
43711;BME280;29309;42.682;23.372;2023-04-28T04:23:14;95586.53;;;7.13;49.26
43711;BME280;29309;42.682;23.372;2023-04-28T04:25:39;95585.25;;;7.05;49.74
43711;BME280;29309;42.682;23.372;2023-04-28T04:28:05;95587.88;;;7.03;49.73
43711;BME280;29309;42.682;23.372;2023-04-28T04:30:30;95584.38;;;7.02;48.75
43711;BME280;29309;42.682;23.372;2023-04-28T04:32:56;95588.75;;;7.05;48.78
43711;BME280;29309;42.682;23.372;2023-04-28T04:35:21;95604.88;;;6.99;48.70
43711;BME280;29309;42.682;23.372;2023-04-28T04:37:47;95592.28;;;6.86;49.32
43711;BME280;29309;42.682;23.372;2023-04-28T04:40:12;95590.94;;;6.87;49.26
43711;BME280;29309;42.682;23.372;2023-04-28T04:42:38;95597.34;;;6.90;49.04
43711;BME280;29309;42.682;23.372;2023-04-28T04:45:04;95587.94;;;6.83;49.18
43711;BME280;29309;42.682;23.372;2023-04-28T04:47:29;95594.03;;;6.82;49.24
43711;BME280;29309;42.682;23.372;2023-04-28T04:49:55;95604.34;;;6.81;49.15
43711;BME280;29309;42.682;23.372;2023-04-28T04:52:20;95603.19;;;6.75;49.61
43711;BME280;29309;42.682;23.372;2023-04-28T04:54:46;95608.56;;;6.73;49.71
43711;BME280;29309;42.682;23.372;2023-04-28T04:57:11;95617.28;;;6.79;49.62
43711;BME280;29309;42.682;23.372;2023-04-28T04:59:37;95612.63;;;6.81;49.54
43711;BME280;29309;42.682;23.372;2023-04-28T05:02:02;95616.97;;;6.84;50.46
43711;BME280;29309;42.682;23.372;2023-04-28T05:04:28;95615.53;;;6.83;49.24
43711;BME280;29309;42.682;23.372;2023-04-28T05:06:53;95620.59;;;6.87;49.71
43711;BME280;29309;42.682;23.372;2023-04-28T05:09:19;95623.22;;;6.85;49.48
43711;BME280;29309;42.682;23.372;2023-04-28T05:11:45;95612.91;;;6.85;49.43
43711;BME280;29309;42.682;23.372;2023-04-28T05:14:10;95619.16;;;6.86;49.27
43711;BME280;29309;42.682;23.372;2023-04-28T05:16:37;95628.84;;;6.97;49.47
43711;BME280;29309;42.682;23.372;2023-04-28T05:19:03;95621.31;;;6.97;48.66
43711;BME280;29309;42.682;23.372;2023-04-28T05:21:29;95620.41;;;6.94;49.05
43711;BME280;29309;42.682;23.372;2023-04-28T05:23:55;95618.69;;;6.99;48.93
43711;BME280;29309;42.682;23.372;2023-04-28T05:26:22;95629.72;;;7.09;49.58
43711;BME280;29309;42.682;23.372;2023-04-28T05:28:47;95620.09;;;7.10;50.08
43711;BME280;29309;42.682;23.372;2023-04-28T05:31:13;95617.63;;;7.14;50.56
43711;BME280;29309;42.682;23.372;2023-04-28T05:33:38;95626.03;;;7.25;49.77
43711;BME280;29309;42.682;23.372;2023-04-28T05:36:04;95618.06;;;7.20;49.53
43711;BME280;29309;42.682;23.372;2023-04-28T05:38:30;95611.63;;;7.27;50.01
43711;BME280;29309;42.682;23.372;2023-04-28T05:40:57;95615.97;;;7.30;50.82
43711;BME280;29309;42.682;23.372;2023-04-28T05:43:22;95615.66;;;7.35;49.96
43711;BME280;29309;42.682;23.372;2023-04-28T05:45:49;95615.81;;;7.37;49.24
43711;BME280;29309;42.682;23.372;2023-04-28T05:48:14;95610.25;;;7.47;49.15
43711;BME280;29309;42.682;23.372;2023-04-28T05:50:40;95609.06;;;7.50;48.87
43711;BME280;29309;42.682;23.372;2023-04-28T05:53:06;95618.47;;;7.57;49.16
43711;BME280;29309;42.682;23.372;2023-04-28T05:55:32;95613.38;;;7.63;49.21
43711;BME280;29309;42.682;23.372;2023-04-28T05:57:58;95616.44;;;7.88;48.43
43711;BME280;29309;42.682;23.372;2023-04-28T06:00:24;95617.50;;;8.25;46.73
43711;BME280;29309;42.682;23.372;2023-04-28T06:02:49;95628.00;;;8.81;46.12
43711;BME280;29309;42.682;23.372;2023-04-28T06:05:15;95635.13;;;9.28;44.49
43711;BME280;29309;42.682;23.372;2023-04-28T06:07:40;95628.66;;;9.82;43.20
43711;BME280;29309;42.682;23.372;2023-04-28T06:10:06;95625.97;;;10.30;43.13
43711;BME280;29309;42.682;23.372;2023-04-28T06:12:32;95619.72;;;10.92;42.33
43711;BME280;29309;42.682;23.372;2023-04-28T06:14:57;95628.84;;;11.59;39.81
43711;BME280;29309;42.682;23.372;2023-04-28T06:17:23;95620.66;;;12.02;38.98
43711;BME280;29309;42.682;23.372;2023-04-28T06:19:48;95632.19;;;12.51;37.87
43711;BME280;29309;42.682;23.372;2023-04-28T06:22:15;95618.31;;;12.96;36.71
43711;BME280;29309;42.682;23.372;2023-04-28T06:24:41;95623.75;;;13.37;36.84
43711;BME280;29309;42.682;23.372;2023-04-28T06:27:07;95631.66;;;13.89;36.23
43711;BME280;29309;42.682;23.372;2023-04-28T06:29:32;95625.03;;;14.29;33.66
43711;BME280;29309;42.682;23.372;2023-04-28T06:31:57;95625.66;;;14.44;33.94
43711;BME280;29309;42.682;23.372;2023-04-28T06:34:24;95625.31;;;14.69;33.77
43711;BME280;29309;42.682;23.372;2023-04-28T06:36:53;95625.09;;;14.98;33.67
43711;BME280;29309;42.682;23.372;2023-04-28T06:39:19;95619.50;;;15.34;33.59
43711;BME280;29309;42.682;23.372;2023-04-28T06:41:44;95627.59;;;15.81;33.40
43711;BME280;29309;42.682;23.372;2023-04-28T06:44:11;95621.75;;;16.14;31.55
43711;BME280;29309;42.682;23.372;2023-04-28T06:46:37;95606.97;;;16.31;30.94
43711;BME280;29309;42.682;23.372;2023-04-28T06:49:02;95611.81;;;16.50;30.73
43711;BME280;29309;42.682;23.372;2023-04-28T06:51:29;95613.94;;;16.93;31.12
43711;BME280;29309;42.682;23.372;2023-04-28T06:53:56;95612.88;;;17.26;29.77
43711;BME280;29309;42.682;23.372;2023-04-28T06:56:21;95610.16;;;17.52;28.62
43711;BME280;29309;42.682;23.372;2023-04-28T06:58:47;95618.91;;;17.62;29.03
43711;BME280;29309;42.682;23.372;2023-04-28T07:01:13;95613.69;;;17.76;29.04
43711;BME280;29309;42.682;23.372;2023-04-28T07:03:38;95617.72;;;17.93;28.88
43711;BME280;29309;42.682;23.372;2023-04-28T07:06:04;95618.25;;;18.13;29.08
43711;BME280;29309;42.682;23.372;2023-04-28T07:08:31;95612.59;;;18.37;27.16
43711;BME280;29309;42.682;23.372;2023-04-28T07:10:56;95621.66;;;18.59;27.73
43711;BME280;29309;42.682;23.372;2023-04-28T07:13:22;95618.84;;;18.59;28.02
43711;BME280;29309;42.682;23.372;2023-04-28T07:15:47;95611.88;;;18.62;27.68
43711;BME280;29309;42.682;23.372;2023-04-28T07:18:12;95607.78;;;18.67;27.43
43711;BME280;29309;42.682;23.372;2023-04-28T07:20:38;95609.69;;;18.88;27.58
43711;BME280;29309;42.682;23.372;2023-04-28T07:23:03;95608.88;;;19.11;27.46
43711;BME280;29309;42.682;23.372;2023-04-28T07:25:29;95607.19;;;19.00;26.27
43711;BME280;29309;42.682;23.372;2023-04-28T07:27:55;95615.59;;;18.98;27.39
43711;BME280;29309;42.682;23.372;2023-04-28T07:30:20;95598.66;;;18.96;26.24
43711;BME280;29309;42.682;23.372;2023-04-28T07:32:46;95608.66;;;19.03;27.26
43711;BME280;29309;42.682;23.372;2023-04-28T07:35:12;95598.63;;;19.24;26.89
43711;BME280;29309;42.682;23.372;2023-04-28T07:37:37;95603.88;;;19.40;25.61
43711;BME280;29309;42.682;23.372;2023-04-28T07:40:04;95608.00;;;19.35;26.08
43711;BME280;29309;42.682;23.372;2023-04-28T07:42:30;95604.00;;;19.44;26.28
43711;BME280;29309;42.682;23.372;2023-04-28T07:44:56;95614.38;;;19.67;26.42
43711;BME280;29309;42.682;23.372;2023-04-28T07:47:23;95609.91;;;19.90;25.00
43711;BME280;29309;42.682;23.372;2023-04-28T07:49:49;95607.41;;;20.04;25.55
43711;BME280;29309;42.682;23.372;2023-04-28T07:52:14;95608.59;;;19.93;23.83
43711;BME280;29309;42.682;23.372;2023-04-28T07:54:40;95598.19;;;20.01;25.38
43711;BME280;29309;42.682;23.372;2023-04-28T07:57:05;95602.47;;;20.04;23.94
43711;BME280;29309;42.682;23.372;2023-04-28T07:59:35;95609.00;;;20.13;23.68
43711;BME280;29309;42.682;23.372;2023-04-28T08:02:00;95605.91;;;20.01;23.63
43711;BME280;29309;42.682;23.372;2023-04-28T08:04:26;95606.97;;;20.18;25.45
43711;BME280;29309;42.682;23.372;2023-04-28T08:06:52;95602.44;;;20.36;24.30
43711;BME280;29309;42.682;23.372;2023-04-28T08:09:18;95605.38;;;20.44;23.79
43711;BME280;29309;42.682;23.372;2023-04-28T08:11:43;95606.19;;;20.49;24.68
43711;BME280;29309;42.682;23.372;2023-04-28T08:14:08;95604.78;;;20.50;23.37
43711;BME280;29309;42.682;23.372;2023-04-28T08:16:34;95600.00;;;20.58;22.98
43711;BME280;29309;42.682;23.372;2023-04-28T08:19:02;95604.59;;;20.40;23.23
43711;BME280;29309;42.682;23.372;2023-04-28T08:21:28;95600.00;;;20.58;22.61
43711;BME280;29309;42.682;23.372;2023-04-28T08:23:53;95604.25;;;20.59;23.37
43711;BME280;29309;42.682;23.372;2023-04-28T08:26:19;95600.38;;;20.81;23.66
43711;BME280;29309;42.682;23.372;2023-04-28T08:28:44;95607.06;;;20.99;22.99
43711;BME280;29309;42.682;23.372;2023-04-28T08:31:10;95597.63;;;21.27;22.90
43711;BME280;29309;42.682;23.372;2023-04-28T08:33:35;95591.34;;;21.30;23.29
43711;BME280;29309;42.682;23.372;2023-04-28T08:36:01;95595.09;;;21.45;22.25
43711;BME280;29309;42.682;23.372;2023-04-28T08:38:26;95588.50;;;21.30;22.90
43711;BME280;29309;42.682;23.372;2023-04-28T08:40:52;95594.38;;;21.46;21.83
43711;BME280;29309;42.682;23.372;2023-04-28T08:43:18;95596.47;;;21.44;21.28
43711;BME280;29309;42.682;23.372;2023-04-28T08:45:45;95586.34;;;21.27;23.11
43711;BME280;29309;42.682;23.372;2023-04-28T08:48:21;95583.47;;;21.23;22.84
43711;BME280;29309;42.682;23.372;2023-04-28T08:50:51;95588.31;;;21.18;21.85
43711;BME280;29309;42.682;23.372;2023-04-28T08:53:25;95584.34;;;20.91;21.12
43711;BME280;29309;42.682;23.372;2023-04-28T08:55:55;95581.72;;;20.61;21.17
43711;BME280;29309;42.682;23.372;2023-04-28T08:58:25;95579.88;;;20.36;22.21
43711;BME280;29309;42.682;23.372;2023-04-28T09:00:52;95578.88;;;20.24;22.94
43711;BME280;29309;42.682;23.372;2023-04-28T09:03:17;95578.22;;;20.25;22.57
43711;BME280;29309;42.682;23.372;2023-04-28T09:05:43;95581.06;;;20.27;22.53
43711;BME280;29309;42.682;23.372;2023-04-28T09:08:08;95577.44;;;20.23;23.06
43711;BME280;29309;42.682;23.372;2023-04-28T09:10:36;95572.38;;;20.15;23.07
43711;BME280;29309;42.682;23.372;2023-04-28T09:13:02;95563.97;;;20.17;23.25
43711;BME280;29309;42.682;23.372;2023-04-28T09:15:31;95567.38;;;20.11;22.35
43711;BME280;29309;42.682;23.372;2023-04-28T09:17:57;95560.00;;;19.94;22.27
43711;BME280;29309;42.682;23.372;2023-04-28T09:20:24;95556.38;;;19.90;22.73
43711;BME280;29309;42.682;23.372;2023-04-28T09:22:52;95551.94;;;19.79;23.48
43711;BME280;29309;42.682;23.372;2023-04-28T09:25:18;95552.16;;;19.89;23.09
43711;BME280;29309;42.682;23.372;2023-04-28T09:27:45;95550.16;;;19.95;23.59
43711;BME280;29309;42.682;23.372;2023-04-28T09:30:11;95549.44;;;19.59;23.15
43711;BME280;29309;42.682;23.372;2023-04-28T09:32:37;95540.09;;;19.50;24.75
43711;BME280;29309;42.682;23.372;2023-04-28T09:35:02;95542.28;;;19.54;23.81
43711;BME280;29309;42.682;23.372;2023-04-28T09:37:29;95538.19;;;19.61;23.47
43711;BME280;29309;42.682;23.372;2023-04-28T09:39:57;95537.53;;;19.62;24.37
43711;BME280;29309;42.682;23.372;2023-04-28T09:45:06;95537.53;;;19.62;23.40
43711;BME280;29309;42.682;23.372;2023-04-28T09:47:35;95536.00;;;19.57;23.59
43711;BME280;29309;42.682;23.372;2023-04-28T09:50:05;95528.41;;;19.64;24.41
43711;BME280;29309;42.682;23.372;2023-04-28T09:52:33;95523.16;;;19.48;23.55
43711;BME280;29309;42.682;23.372;2023-04-28T09:55:06;95514.66;;;19.46;23.98
43711;BME280;29309;42.682;23.372;2023-04-28T09:57:34;95518.25;;;19.49;22.87
43711;BME280;29309;42.682;23.372;2023-04-28T10:00:01;95521.09;;;19.19;23.21
43711;BME280;29309;42.682;23.372;2023-04-28T10:02:30;95508.50;;;19.22;24.44
43711;BME280;29309;42.682;23.372;2023-04-28T10:04:56;95507.78;;;19.22;23.47
43711;BME280;29309;42.682;23.372;2023-04-28T10:07:22;95508.41;;;19.18;23.72
43711;BME280;29309;42.682;23.372;2023-04-28T10:09:51;95501.41;;;19.21;23.42
43711;BME280;29309;42.682;23.372;2023-04-28T10:12:17;95506.97;;;19.17;23.39
43711;BME280;29309;42.682;23.372;2023-04-28T10:14:43;95507.03;;;18.89;22.41
43711;BME280;29309;42.682;23.372;2023-04-28T10:17:11;95502.47;;;18.74;24.45
43711;BME280;29309;42.682;23.372;2023-04-28T10:19:40;95496.78;;;18.70;23.67
43711;BME280;29309;42.682;23.372;2023-04-28T10:25:14;95482.66;;;18.68;23.34
43711;BME280;29309;42.682;23.372;2023-04-28T10:27:34;95489.81;;;18.73;23.59
43711;BME280;29309;42.682;23.372;2023-04-28T10:32:36;95498.34;;;18.77;23.97
43711;BME280;29309;42.682;23.372;2023-04-28T10:38:06;95478.28;;;18.61;24.29
43711;BME280;29309;42.682;23.372;2023-04-28T10:40:36;95471.13;;;18.28;22.50
43711;BME280;29309;42.682;23.372;2023-04-28T10:43:03;95473.78;;;18.22;22.31
43711;BME280;29309;42.682;23.372;2023-04-28T10:48:16;95459.06;;;18.24;22.44
43711;BME280;29309;42.682;23.372;2023-04-28T10:56:15;95455.91;;;18.09;23.30
43711;BME280;29309;42.682;23.372;2023-04-28T10:58:43;95457.34;;;18.10;24.24
43711;BME280;29309;42.682;23.372;2023-04-28T11:06:22;95451.94;;;18.18;22.84
43711;BME280;29309;42.682;23.372;2023-04-28T11:08:55;95447.63;;;18.15;22.68
43711;BME280;29309;42.682;23.372;2023-04-28T11:11:25;95446.34;;;18.20;22.65
43711;BME280;29309;42.682;23.372;2023-04-28T11:13:53;95433.22;;;18.29;22.82
43711;BME280;29309;42.682;23.372;2023-04-28T11:16:21;95437.41;;;18.28;23.81
43711;BME280;29309;42.682;23.372;2023-04-28T11:18:54;95425.50;;;18.30;22.80
43711;BME280;29309;42.682;23.372;2023-04-28T11:21:21;95427.59;;;18.29;22.25
43711;BME280;29309;42.682;23.372;2023-04-28T11:23:47;95428.34;;;18.32;22.41
43711;BME280;29309;42.682;23.372;2023-04-28T11:26:13;95422.06;;;18.33;23.26
43711;BME280;29309;42.682;23.372;2023-04-28T11:28:48;95431.50;;;18.46;23.14
43711;BME280;29309;42.682;23.372;2023-04-28T11:31:16;95415.84;;;18.37;23.24
43711;BME280;29309;42.682;23.372;2023-04-28T11:34:05;95421.25;;;18.29;22.90
43711;BME280;29309;42.682;23.372;2023-04-28T11:36:35;95413.56;;;18.31;21.62
43711;BME280;29309;42.682;23.372;2023-04-28T11:39:08;95410.97;;;18.39;21.62
43711;BME280;29309;42.682;23.372;2023-04-28T11:41:38;95414.69;;;18.48;22.12
43711;BME280;29309;42.682;23.372;2023-04-28T11:44:18;95403.72;;;18.60;22.23
43711;BME280;29309;42.682;23.372;2023-04-28T11:46:53;95401.75;;;18.66;23.55
43711;BME280;29309;42.682;23.372;2023-04-28T11:49:25;95398.47;;;18.76;22.76
43711;BME280;29309;42.682;23.372;2023-04-28T11:51:52;95398.84;;;18.94;22.98
43711;BME280;29309;42.682;23.372;2023-04-28T11:54:24;95397.06;;;19.11;23.54
43711;BME280;29309;42.682;23.372;2023-04-28T11:56:51;95395.97;;;19.26;23.11
43711;BME280;29309;42.682;23.372;2023-04-28T11:59:16;95385.81;;;19.45;22.84
43711;BME280;29309;42.682;23.372;2023-04-28T12:01:51;95391.44;;;19.45;21.64
43711;BME280;29309;42.682;23.372;2023-04-28T12:04:40;95393.00;;;19.54;22.47
43711;BME280;29309;42.682;23.372;2023-04-28T12:07:10;95394.63;;;19.65;22.50
43711;BME280;29309;42.682;23.372;2023-04-28T12:09:41;95385.13;;;19.86;22.70
43711;BME280;29309;42.682;23.372;2023-04-28T12:12:08;95378.03;;;19.81;22.05
43711;BME280;29309;42.682;23.372;2023-04-28T12:14:55;95373.63;;;19.72;22.12
43711;BME280;29309;42.682;23.372;2023-04-28T12:17:32;95378.09;;;19.45;22.45
43711;BME280;29309;42.682;23.372;2023-04-28T12:19:59;95366.81;;;19.09;23.17
43711;BME280;29309;42.682;23.372;2023-04-28T12:22:26;95361.31;;;18.82;23.16
43711;BME280;29309;42.682;23.372;2023-04-28T12:25:09;95361.13;;;18.42;23.70
43711;BME280;29309;42.682;23.372;2023-04-28T12:27:36;95358.25;;;18.08;25.24
43711;BME280;29309;42.682;23.372;2023-04-28T12:30:25;95361.75;;;17.79;25.35
43711;BME280;29309;42.682;23.372;2023-04-28T12:32:50;95358.38;;;17.56;27.69
43711;BME280;29309;42.682;23.372;2023-04-28T12:35:16;95351.22;;;17.26;25.58
43711;BME280;29309;42.682;23.372;2023-04-28T12:37:42;95348.63;;;17.08;26.14
43711;BME280;29309;42.682;23.372;2023-04-28T12:40:08;95346.31;;;17.00;26.44
43711;BME280;29309;42.682;23.372;2023-04-28T12:42:35;95341.16;;;16.91;26.90
43711;BME280;29309;42.682;23.372;2023-04-28T12:45:00;95340.16;;;16.80;26.90
43711;BME280;29309;42.682;23.372;2023-04-28T12:47:26;95341.34;;;16.73;27.42
43711;BME280;29309;42.682;23.372;2023-04-28T12:49:52;95344.66;;;16.65;27.28
43711;BME280;29309;42.682;23.372;2023-04-28T12:52:18;95336.78;;;16.60;26.88
43711;BME280;29309;42.682;23.372;2023-04-28T12:54:44;95324.63;;;16.53;26.49
43711;BME280;29309;42.682;23.372;2023-04-28T12:57:17;95331.06;;;16.56;27.51
43711;BME280;29309;42.682;23.372;2023-04-28T12:59:43;95326.78;;;16.55;28.52
43711;BME280;29309;42.682;23.372;2023-04-28T13:02:09;95326.75;;;16.53;28.26
43711;BME280;29309;42.682;23.372;2023-04-28T13:04:35;95323.88;;;16.51;28.09
43711;BME280;29309;42.682;23.372;2023-04-28T13:07:01;95316.78;;;16.48;27.87
43711;BME280;29309;42.682;23.372;2023-04-28T13:09:27;95306.81;;;16.43;26.89
43711;BME280;29309;42.682;23.372;2023-04-28T13:11:52;95320.69;;;16.39;27.29
43711;BME280;29309;42.682;23.372;2023-04-28T13:14:21;95320.66;;;16.37;28.89
43711;BME280;29309;42.682;23.372;2023-04-28T13:16:47;95312.91;;;16.35;27.57